sensor_id;sensor_type;location;lat;lon;timestamp;pressure;altitude;pressure_sealevel;temperature;humidity
68456;BME280;55437;55.046;38.838;2024-01-06T00:02:24;99668.56;;;-14.19;44.59
68456;BME280;55437;55.046;38.838;2024-01-06T00:04:51;99669.72;;;-14.01;44.45
68456;BME280;55437;55.046;38.838;2024-01-06T00:07:17;99663.13;;;-13.88;44.26
68456;BME280;55437;55.046;38.838;2024-01-06T00:09:43;99660.50;;;-13.91;44.45
68456;BME280;55437;55.046;38.838;2024-01-06T00:12:09;99651.94;;;-13.82;44.01
68456;BME280;55437;55.046;38.838;2024-01-06T00:14:35;99659.34;;;-13.82;44.67
68456;BME280;55437;55.046;38.838;2024-01-06T00:17:01;99654.06;;;-14.02;44.60
68456;BME280;55437;55.046;38.838;2024-01-06T00:19:27;99636.38;;;-14.49;45.04
68456;BME280;55437;55.046;38.838;2024-01-06T00:21:53;99640.03;;;-14.55;45.35
68456;BME280;55437;55.046;38.838;2024-01-06T00:24:20;99635.56;;;-14.74;45.64
68456;BME280;55437;55.046;38.838;2024-01-06T00:26:46;99640.88;;;-14.68;45.98
68456;BME280;55437;55.046;38.838;2024-01-06T00:29:11;99631.44;;;-14.49;45.84
68456;BME280;55437;55.046;38.838;2024-01-06T00:31:38;99633.03;;;-14.49;45.59
68456;BME280;55437;55.046;38.838;2024-01-06T00:34:04;99638.03;;;-14.48;45.62
68456;BME280;55437;55.046;38.838;2024-01-06T00:36:30;99620.53;;;-14.39;45.66
68456;BME280;55437;55.046;38.838;2024-01-06T00:38:56;99621.81;;;-14.31;45.46
68456;BME280;55437;55.046;38.838;2024-01-06T00:41:22;99625.50;;;-14.11;45.22
68456;BME280;55437;55.046;38.838;2024-01-06T00:43:48;99631.13;;;-14.01;45.26
68456;BME280;55437;55.046;38.838;2024-01-06T00:46:14;99628.47;;;-14.17;45.16
68456;BME280;55437;55.046;38.838;2024-01-06T00:48:40;99632.81;;;-14.13;45.58
68456;BME280;55437;55.046;38.838;2024-01-06T00:51:06;99631.78;;;-14.03;45.63
68456;BME280;55437;55.046;38.838;2024-01-06T00:53:32;99622.25;;;-13.97;45.46
68456;BME280;55437;55.046;38.838;2024-01-06T00:55:58;99622.53;;;-13.79;45.36
68456;BME280;55437;55.046;38.838;2024-01-06T00:58:24;99622.53;;;-13.79;45.11
68456;BME280;55437;55.046;38.838;2024-01-06T01:00:50;99627.66;;;-13.76;44.82
68456;BME280;55437;55.046;38.838;2024-01-06T01:03:16;99639.03;;;-13.65;45.00
68456;BME280;55437;55.046;38.838;2024-01-06T01:05:41;99636.47;;;-13.67;44.80
68456;BME280;55437;55.046;38.838;2024-01-06T01:08:09;99629.34;;;-13.75;44.98
68456;BME280;55437;55.046;38.838;2024-01-06T01:10:35;99631.00;;;-14.02;45.60
68456;BME280;55437;55.046;38.838;2024-01-06T01:13:01;99613.09;;;-14.13;46.02
68456;BME280;55437;55.046;38.838;2024-01-06T01:15:27;99624.28;;;-14.05;45.84
68456;BME280;55437;55.046;38.838;2024-01-06T01:17:53;99613.31;;;-13.82;45.82
68456;BME280;55437;55.046;38.838;2024-01-06T01:20:19;99617.78;;;-13.76;45.40
68456;BME280;55437;55.046;38.838;2024-01-06T01:22:45;99606.50;;;-13.99;45.50
68456;BME280;55437;55.046;38.838;2024-01-06T01:25:11;99617.19;;;-14.27;46.40
68456;BME280;55437;55.046;38.838;2024-01-06T01:27:38;99620.50;;;-14.13;46.27
68456;BME280;55437;55.046;38.838;2024-01-06T01:30:06;99635.19;;;-14.01;45.99
68456;BME280;55437;55.046;38.838;2024-01-06T01:32:32;99631.34;;;-13.83;46.36
68456;BME280;55437;55.046;38.838;2024-01-06T01:34:58;99643.88;;;-13.80;45.83
68456;BME280;55437;55.046;38.838;2024-01-06T01:37:24;99638.06;;;-13.67;45.93
68456;BME280;55437;55.046;38.838;2024-01-06T01:39:50;99644.22;;;-13.33;45.99
68456;BME280;55437;55.046;38.838;2024-01-06T01:42:16;99651.09;;;-12.99;45.85
68456;BME280;55437;55.046;38.838;2024-01-06T01:44:42;99657.56;;;-13.16;45.61
68456;BME280;55437;55.046;38.838;2024-01-06T01:47:09;99652.34;;;-13.21;45.97
68456;BME280;55437;55.046;38.838;2024-01-06T01:49:35;99647.41;;;-13.21;45.48
68456;BME280;55437;55.046;38.838;2024-01-06T01:52:20;99652.63;;;-13.16;45.89
68456;BME280;55437;55.046;38.838;2024-01-06T01:54:46;99651.66;;;-13.03;45.53
68456;BME280;55437;55.046;38.838;2024-01-06T01:57:14;99657.66;;;-13.00;46.21
68456;BME280;55437;55.046;38.838;2024-01-06T01:59:41;99657.84;;;-12.82;45.62
68456;BME280;55437;55.046;38.838;2024-01-06T02:02:08;99655.63;;;-12.78;45.45
68456;BME280;55437;55.046;38.838;2024-01-06T02:05:00;99655.72;;;-12.76;45.31
68456;BME280;55437;55.046;38.838;2024-01-06T02:07:26;99655.31;;;-12.69;45.37
68456;BME280;55437;55.046;38.838;2024-01-06T02:09:52;99661.00;;;-12.55;45.23
68456;BME280;55437;55.046;38.838;2024-01-06T02:12:18;99656.16;;;-12.54;45.05
68456;BME280;55437;55.046;38.838;2024-01-06T02:14:45;99658.47;;;-12.57;45.42
68456;BME280;55437;55.046;38.838;2024-01-06T02:17:11;99658.22;;;-12.47;45.40
68456;BME280;55437;55.046;38.838;2024-01-06T02:19:37;99666.22;;;-12.36;45.22
68456;BME280;55437;55.046;38.838;2024-01-06T02:22:03;99653.94;;;-12.20;44.57
68456;BME280;55437;55.046;38.838;2024-01-06T02:24:29;99653.13;;;-12.19;44.98
68456;BME280;55437;55.046;38.838;2024-01-06T02:26:55;99653.69;;;-12.24;44.88
68456;BME280;55437;55.046;38.838;2024-01-06T02:29:21;99645.94;;;-12.45;45.27
68456;BME280;55437;55.046;38.838;2024-01-06T02:31:47;99654.03;;;-12.48;45.06
68456;BME280;55437;55.046;38.838;2024-01-06T02:34:13;99650.88;;;-12.45;45.59
68456;BME280;55437;55.046;38.838;2024-01-06T02:36:39;99654.28;;;-12.43;45.90
68456;BME280;55437;55.046;38.838;2024-01-06T02:39:05;99656.41;;;-12.34;45.54
68456;BME280;55437;55.046;38.838;2024-01-06T02:41:31;99653.50;;;-12.27;45.70
68456;BME280;55437;55.046;38.838;2024-01-06T02:43:58;99652.22;;;-12.21;45.26
68456;BME280;55437;55.046;38.838;2024-01-06T02:46:24;99651.19;;;-12.10;45.08
68456;BME280;55437;55.046;38.838;2024-01-06T02:48:50;99638.56;;;-12.14;45.25
68456;BME280;55437;55.046;38.838;2024-01-06T02:51:16;99634.47;;;-12.43;45.16
68456;BME280;55437;55.046;38.838;2024-01-06T02:53:42;99635.78;;;-12.50;45.75
68456;BME280;55437;55.046;38.838;2024-01-06T02:56:11;99637.41;;;-12.50;46.00
68456;BME280;55437;55.046;38.838;2024-01-06T02:58:38;99635.97;;;-12.47;45.92
68456;BME280;55437;55.046;38.838;2024-01-06T03:01:04;99646.03;;;-12.44;45.43
68456;BME280;55437;55.046;38.838;2024-01-06T03:03:31;99642.88;;;-12.56;45.97
68456;BME280;55437;55.046;38.838;2024-01-06T03:05:57;99637.56;;;-12.62;45.77
68456;BME280;55437;55.046;38.838;2024-01-06T03:08:23;99634.50;;;-12.72;46.31
68456;BME280;55437;55.046;38.838;2024-01-06T03:10:49;99640.63;;;-12.66;46.36
68456;BME280;55437;55.046;38.838;2024-01-06T03:13:15;99636.41;;;-12.68;45.79
68456;BME280;55437;55.046;38.838;2024-01-06T03:15:41;99640.91;;;-12.61;46.15
68456;BME280;55437;55.046;38.838;2024-01-06T03:18:07;99634.34;;;-12.61;46.00
68456;BME280;55437;55.046;38.838;2024-01-06T03:20:34;99634.06;;;-12.51;45.77
68456;BME280;55437;55.046;38.838;2024-01-06T03:23:00;99642.75;;;-12.43;45.76
68456;BME280;55437;55.046;38.838;2024-01-06T03:25:26;99643.97;;;-12.36;46.18
68456;BME280;55437;55.046;38.838;2024-01-06T03:27:51;99642.25;;;-12.37;46.12
68456;BME280;55437;55.046;38.838;2024-01-06T03:30:17;99629.31;;;-12.62;46.15
68456;BME280;55437;55.046;38.838;2024-01-06T03:32:43;99625.38;;;-12.88;46.89
68456;BME280;55437;55.046;38.838;2024-01-06T03:35:09;99613.31;;;-13.26;47.17
68456;BME280;55437;55.046;38.838;2024-01-06T03:37:36;99628.13;;;-13.41;48.05
68456;BME280;55437;55.046;38.838;2024-01-06T03:40:03;99630.88;;;-13.22;48.11
68456;BME280;55437;55.046;38.838;2024-01-06T03:42:30;99627.66;;;-12.91;47.51
68456;BME280;55437;55.046;38.838;2024-01-06T03:44:56;99636.53;;;-12.65;47.29
68456;BME280;55437;55.046;38.838;2024-01-06T03:47:22;99629.41;;;-12.46;46.13
68456;BME280;55437;55.046;38.838;2024-01-06T03:49:48;99638.47;;;-12.30;46.53
68456;BME280;55437;55.046;38.838;2024-01-06T03:52:14;99638.75;;;-12.41;46.34
68456;BME280;55437;55.046;38.838;2024-01-06T03:54:40;99642.34;;;-12.35;46.67
68456;BME280;55437;55.046;38.838;2024-01-06T03:57:06;99648.47;;;-12.29;46.63
68456;BME280;55437;55.046;38.838;2024-01-06T03:59:32;99646.16;;;-12.11;46.67
68456;BME280;55437;55.046;38.838;2024-01-06T04:01:57;99649.13;;;-12.17;46.62
68456;BME280;55437;55.046;38.838;2024-01-06T04:04:24;99662.78;;;-12.09;46.42
68456;BME280;55437;55.046;38.838;2024-01-06T04:06:50;99657.66;;;-11.97;46.48
68456;BME280;55437;55.046;38.838;2024-01-06T04:09:16;99653.75;;;-11.77;46.55
68456;BME280;55437;55.046;38.838;2024-01-06T04:11:42;99654.53;;;-11.78;45.70
68456;BME280;55437;55.046;38.838;2024-01-06T04:14:08;99656.06;;;-11.80;45.78
68456;BME280;55437;55.046;38.838;2024-01-06T04:16:34;99657.78;;;-11.94;45.97
68456;BME280;55437;55.046;38.838;2024-01-06T04:19:00;99653.22;;;-12.03;46.31
68456;BME280;55437;55.046;38.838;2024-01-06T04:21:26;99647.22;;;-12.06;46.45
68456;BME280;55437;55.046;38.838;2024-01-06T04:23:52;99639.91;;;-12.19;46.56
68456;BME280;55437;55.046;38.838;2024-01-06T04:26:18;99637.22;;;-12.24;46.58
68456;BME280;55437;55.046;38.838;2024-01-06T04:28:44;99646.66;;;-12.31;46.66
68456;BME280;55437;55.046;38.838;2024-01-06T04:31:10;99644.56;;;-12.40;46.53
68456;BME280;55437;55.046;38.838;2024-01-06T04:33:36;99647.56;;;-12.46;47.06
68456;BME280;55437;55.046;38.838;2024-01-06T04:36:03;99671.59;;;-12.58;47.24
68456;BME280;55437;55.046;38.838;2024-01-06T04:38:29;99673.38;;;-12.70;47.45
68456;BME280;55437;55.046;38.838;2024-01-06T04:40:55;99669.81;;;-12.60;47.48
68456;BME280;55437;55.046;38.838;2024-01-06T04:43:21;99676.38;;;-12.46;47.25
68456;BME280;55437;55.046;38.838;2024-01-06T04:45:47;99677.75;;;-12.36;47.14
68456;BME280;55437;55.046;38.838;2024-01-06T04:48:13;99668.78;;;-12.20;46.89
68456;BME280;55437;55.046;38.838;2024-01-06T04:50:39;99684.78;;;-11.98;47.10
68456;BME280;55437;55.046;38.838;2024-01-06T04:53:05;99678.78;;;-11.87;46.95
68456;BME280;55437;55.046;38.838;2024-01-06T04:55:31;99686.03;;;-11.90;46.63
68456;BME280;55437;55.046;38.838;2024-01-06T04:57:57;99685.16;;;-12.22;46.77
68456;BME280;55437;55.046;38.838;2024-01-06T05:00:23;99684.31;;;-12.37;46.76
68456;BME280;55437;55.046;38.838;2024-01-06T05:02:49;99689.06;;;-12.40;47.51
68456;BME280;55437;55.046;38.838;2024-01-06T05:05:15;99685.66;;;-12.27;47.19
68456;BME280;55437;55.046;38.838;2024-01-06T05:07:42;99692.81;;;-12.17;47.35
68456;BME280;55437;55.046;38.838;2024-01-06T05:10:08;99682.66;;;-12.07;47.08
68456;BME280;55437;55.046;38.838;2024-01-06T05:12:34;99683.75;;;-12.02;46.60
68456;BME280;55437;55.046;38.838;2024-01-06T05:15:00;99685.03;;;-11.94;46.98
68456;BME280;55437;55.046;38.838;2024-01-06T05:17:27;99686.53;;;-11.81;46.77
68456;BME280;55437;55.046;38.838;2024-01-06T05:19:54;99675.19;;;-11.92;46.92
68456;BME280;55437;55.046;38.838;2024-01-06T05:22:20;99675.75;;;-11.98;46.61
68456;BME280;55437;55.046;38.838;2024-01-06T05:24:46;99675.94;;;-12.10;46.62
68456;BME280;55437;55.046;38.838;2024-01-06T05:27:12;99683.44;;;-12.08;47.16
68456;BME280;55437;55.046;38.838;2024-01-06T05:29:38;99676.25;;;-12.04;47.28
68456;BME280;55437;55.046;38.838;2024-01-06T05:32:04;99675.28;;;-11.91;46.73
68456;BME280;55437;55.046;38.838;2024-01-06T05:34:29;99665.16;;;-11.95;47.29
68456;BME280;55437;55.046;38.838;2024-01-06T05:36:55;99685.31;;;-12.19;47.35
68456;BME280;55437;55.046;38.838;2024-01-06T05:39:21;99686.44;;;-12.28;47.15
68456;BME280;55437;55.046;38.838;2024-01-06T05:41:47;99684.31;;;-12.22;47.14
68456;BME280;55437;55.046;38.838;2024-01-06T05:44:13;99683.66;;;-12.04;47.50
68456;BME280;55437;55.046;38.838;2024-01-06T05:46:39;99691.00;;;-11.90;47.72
68456;BME280;55437;55.046;38.838;2024-01-06T05:49:05;99697.38;;;-11.79;46.87
68456;BME280;55437;55.046;38.838;2024-01-06T05:51:31;99699.03;;;-11.63;46.81
68456;BME280;55437;55.046;38.838;2024-01-06T05:53:57;99698.94;;;-11.65;46.69
68456;BME280;55437;55.046;38.838;2024-01-06T05:56:26;99694.28;;;-11.59;46.45
68456;BME280;55437;55.046;38.838;2024-01-06T05:58:53;99696.34;;;-11.52;47.12
68456;BME280;55437;55.046;38.838;2024-01-06T06:01:20;99696.28;;;-11.37;46.65
68456;BME280;55437;55.046;38.838;2024-01-06T06:03:47;99702.25;;;-11.17;46.09
68456;BME280;55437;55.046;38.838;2024-01-06T06:06:13;99703.06;;;-11.02;46.00
68456;BME280;55437;55.046;38.838;2024-01-06T06:08:42;99699.06;;;-10.99;46.25
68456;BME280;55437;55.046;38.838;2024-01-06T06:11:08;99697.31;;;-11.17;46.28
68456;BME280;55437;55.046;38.838;2024-01-06T06:13:40;99698.00;;;-11.36;46.73
68456;BME280;55437;55.046;38.838;2024-01-06T06:16:09;99701.53;;;-11.31;46.78
68456;BME280;55437;55.046;38.838;2024-01-06T06:18:35;99706.06;;;-11.24;46.79
68456;BME280;55437;55.046;38.838;2024-01-06T06:21:01;99715.84;;;-11.11;47.07
68456;BME280;55437;55.046;38.838;2024-01-06T06:23:30;99704.97;;;-10.97;46.79
68456;BME280;55437;55.046;38.838;2024-01-06T06:25:57;99714.28;;;-10.93;46.36
68456;BME280;55437;55.046;38.838;2024-01-06T06:28:23;99713.88;;;-10.84;46.83
68456;BME280;55437;55.046;38.838;2024-01-06T06:30:49;99712.66;;;-10.76;46.15
68456;BME280;55437;55.046;38.838;2024-01-06T06:33:15;99720.53;;;-10.83;46.63
68456;BME280;55437;55.046;38.838;2024-01-06T06:35:41;99722.56;;;-10.76;46.16
68456;BME280;55437;55.046;38.838;2024-01-06T06:38:08;99721.63;;;-10.62;46.65
68456;BME280;55437;55.046;38.838;2024-01-06T06:40:34;99717.66;;;-10.42;46.00
68456;BME280;55437;55.046;38.838;2024-01-06T06:43:00;99711.22;;;-10.38;46.01
68456;BME280;55437;55.046;38.838;2024-01-06T06:45:26;99717.16;;;-10.35;45.90
68456;BME280;55437;55.046;38.838;2024-01-06T06:47:52;99725.25;;;-10.39;45.70
68456;BME280;55437;55.046;38.838;2024-01-06T06:50:21;99722.91;;;-10.36;46.27
68456;BME280;55437;55.046;38.838;2024-01-06T06:52:47;99716.97;;;-10.22;46.16
68456;BME280;55437;55.046;38.838;2024-01-06T06:55:13;99721.28;;;-10.18;45.70
68456;BME280;55437;55.046;38.838;2024-01-06T06:57:39;99726.13;;;-10.21;45.52
68456;BME280;55437;55.046;38.838;2024-01-06T07:00:06;99726.47;;;-10.31;46.04
68456;BME280;55437;55.046;38.838;2024-01-06T07:02:35;99721.44;;;-10.14;45.52
68456;BME280;55437;55.046;38.838;2024-01-06T07:05:01;99724.25;;;-10.25;45.51
68456;BME280;55437;55.046;38.838;2024-01-06T07:07:30;99722.63;;;-10.42;45.86
68456;BME280;55437;55.046;38.838;2024-01-06T07:09:56;99732.19;;;-10.32;45.92
68456;BME280;55437;55.046;38.838;2024-01-06T07:12:23;99732.34;;;-10.29;45.72
68456;BME280;55437;55.046;38.838;2024-01-06T07:14:53;99739.38;;;-10.20;45.58
68456;BME280;55437;55.046;38.838;2024-01-06T07:17:19;99740.38;;;-10.16;45.28
68456;BME280;55437;55.046;38.838;2024-01-06T07:19:44;99745.44;;;-10.13;45.45
68456;BME280;55437;55.046;38.838;2024-01-06T07:22:11;99747.66;;;-10.02;45.36
68456;BME280;55437;55.046;38.838;2024-01-06T07:24:37;99746.44;;;-9.94;45.51
68456;BME280;55437;55.046;38.838;2024-01-06T07:27:03;99749.38;;;-10.01;45.28
68456;BME280;55437;55.046;38.838;2024-01-06T07:29:30;99752.53;;;-9.69;44.85
68456;BME280;55437;55.046;38.838;2024-01-06T07:31:56;99747.69;;;-9.31;44.76
68456;BME280;55437;55.046;38.838;2024-01-06T07:34:22;99754.09;;;-8.80;43.81
68456;BME280;55437;55.046;38.838;2024-01-06T07:37:13;99752.81;;;-8.31;43.36
68456;BME280;55437;55.046;38.838;2024-01-06T07:39:39;99751.44;;;-8.04;42.94
68456;BME280;55437;55.046;38.838;2024-01-06T07:42:05;99736.88;;;-7.73;42.57
68456;BME280;55437;55.046;38.838;2024-01-06T07:44:33;99740.56;;;-7.42;42.71
68456;BME280;55437;55.046;38.838;2024-01-06T07:46:59;99741.94;;;-7.06;42.48
68456;BME280;55437;55.046;38.838;2024-01-06T07:49:25;99733.13;;;-6.96;41.96
68456;BME280;55437;55.046;38.838;2024-01-06T07:51:50;99747.78;;;-6.81;41.56
68456;BME280;55437;55.046;38.838;2024-01-06T07:54:16;99738.06;;;-6.74;41.46
68456;BME280;55437;55.046;38.838;2024-01-06T07:56:42;99743.84;;;-6.52;40.69
68456;BME280;55437;55.046;38.838;2024-01-06T07:59:09;99739.47;;;-6.58;41.10
68456;BME280;55437;55.046;38.838;2024-01-06T08:01:35;99728.84;;;-6.76;40.58
68456;BME280;55437;55.046;38.838;2024-01-06T08:04:01;99721.78;;;-7.10;40.91
68456;BME280;55437;55.046;38.838;2024-01-06T08:06:27;99724.16;;;-7.37;40.90
68456;BME280;55437;55.046;38.838;2024-01-06T08:08:53;99729.78;;;-7.64;41.20
68456;BME280;55437;55.046;38.838;2024-01-06T08:11:20;99727.19;;;-7.87;41.07
68456;BME280;55437;55.046;38.838;2024-01-06T08:13:46;99742.13;;;-8.08;41.50
68456;BME280;55437;55.046;38.838;2024-01-06T08:16:13;99753.38;;;-8.39;41.35
68456;BME280;55437;55.046;38.838;2024-01-06T08:18:39;99742.19;;;-8.48;42.04
68456;BME280;55437;55.046;38.838;2024-01-06T08:21:05;99739.75;;;-8.66;41.91
68456;BME280;55437;55.046;38.838;2024-01-06T08:23:31;99750.19;;;-8.94;42.42
68456;BME280;55437;55.046;38.838;2024-01-06T08:25:57;99754.66;;;-9.04;42.62
68456;BME280;55437;55.046;38.838;2024-01-06T08:28:23;99741.06;;;-8.93;42.79
68456;BME280;55437;55.046;38.838;2024-01-06T08:30:49;99727.13;;;-8.90;42.23
68456;BME280;55437;55.046;38.838;2024-01-06T08:33:15;99728.28;;;-9.01;42.45
68456;BME280;55437;55.046;38.838;2024-01-06T08:35:44;99725.34;;;-8.92;42.79
68456;BME280;55437;55.046;38.838;2024-01-06T08:38:10;99723.72;;;-8.73;42.71
68456;BME280;55437;55.046;38.838;2024-01-06T08:40:36;99728.03;;;-8.68;42.72
68456;BME280;55437;55.046;38.838;2024-01-06T08:43:03;99721.41;;;-8.68;42.55
68456;BME280;55437;55.046;38.838;2024-01-06T08:45:29;99720.56;;;-8.68;42.59
68456;BME280;55437;55.046;38.838;2024-01-06T08:47:55;99716.56;;;-8.65;42.60
68456;BME280;55437;55.046;38.838;2024-01-06T08:50:21;99705.69;;;-8.48;42.30
68456;BME280;55437;55.046;38.838;2024-01-06T08:52:47;99709.66;;;-8.72;42.60
68456;BME280;55437;55.046;38.838;2024-01-06T08:55:14;99713.19;;;-8.86;43.00
68456;BME280;55437;55.046;38.838;2024-01-06T08:57:40;99717.84;;;-8.75;43.01
68456;BME280;55437;55.046;38.838;2024-01-06T09:00:06;99715.66;;;-8.67;42.91
68456;BME280;55437;55.046;38.838;2024-01-06T09:02:53;99715.78;;;-8.64;42.79
68456;BME280;55437;55.046;38.838;2024-01-06T09:05:19;99702.38;;;-8.67;43.07
68456;BME280;55437;55.046;38.838;2024-01-06T09:07:45;99700.53;;;-8.91;42.83
68456;BME280;55437;55.046;38.838;2024-01-06T09:10:19;99705.66;;;-8.88;42.82
68456;BME280;55437;55.046;38.838;2024-01-06T09:12:48;99694.84;;;-8.88;43.23
68456;BME280;55437;55.046;38.838;2024-01-06T09:15:13;99683.19;;;-8.89;43.62
68456;BME280;55437;55.046;38.838;2024-01-06T09:17:39;99687.38;;;-8.69;43.24
68456;BME280;55437;55.046;38.838;2024-01-06T09:20:06;99677.81;;;-8.39;42.66
68456;BME280;55437;55.046;38.838;2024-01-06T09:22:33;99682.22;;;-8.33;42.90
68456;BME280;55437;55.046;38.838;2024-01-06T09:24:59;99689.56;;;-8.56;42.51
68456;BME280;55437;55.046;38.838;2024-01-06T09:27:25;99688.06;;;-8.52;43.06
68456;BME280;55437;55.046;38.838;2024-01-06T09:29:51;99699.19;;;-8.44;42.76
68456;BME280;55437;55.046;38.838;2024-01-06T09:32:17;99703.63;;;-8.58;42.90
68456;BME280;55437;55.046;38.838;2024-01-06T09:34:43;99705.91;;;-8.62;43.10
68456;BME280;55437;55.046;38.838;2024-01-06T09:37:09;99688.00;;;-8.54;43.56
68456;BME280;55437;55.046;38.838;2024-01-06T09:39:35;99682.91;;;-8.57;43.29
68456;BME280;55437;55.046;38.838;2024-01-06T09:42:01;99688.00;;;-8.54;43.11
68456;BME280;55437;55.046;38.838;2024-01-06T09:44:27;99681.41;;;-8.53;42.87
68456;BME280;55437;55.046;38.838;2024-01-06T09:46:58;99682.91;;;-8.57;43.16
68456;BME280;55437;55.046;38.838;2024-01-06T09:49:28;99677.63;;;-8.44;43.20
68456;BME280;55437;55.046;38.838;2024-01-06T09:52:00;99682.34;;;-8.29;42.70
68456;BME280;55437;55.046;38.838;2024-01-06T09:54:30;99673.91;;;-8.34;43.12
68456;BME280;55437;55.046;38.838;2024-01-06T09:57:01;99672.38;;;-8.29;43.10
68456;BME280;55437;55.046;38.838;2024-01-06T09:59:27;99660.06;;;-8.26;43.10
68456;BME280;55437;55.046;38.838;2024-01-06T10:02:04;99659.84;;;-8.32;42.96
68456;BME280;55437;55.046;38.838;2024-01-06T10:04:31;99660.41;;;-8.39;42.86
68456;BME280;55437;55.046;38.838;2024-01-06T10:06:56;99661.78;;;-8.25;42.71
68456;BME280;55437;55.046;38.838;2024-01-06T10:09:26;99662.50;;;-8.27;42.67
68456;BME280;55437;55.046;38.838;2024-01-06T10:11:55;99657.53;;;-8.27;42.81
68456;BME280;55437;55.046;38.838;2024-01-06T10:14:24;99657.25;;;-8.35;42.52
68456;BME280;55437;55.046;38.838;2024-01-06T10:16:51;99659.03;;;-8.31;43.14
68456;BME280;55437;55.046;38.838;2024-01-06T10:19:23;99652.38;;;-8.32;42.77
68456;BME280;55437;55.046;38.838;2024-01-06T10:21:49;99644.03;;;-8.34;43.24
68456;BME280;55437;55.046;38.838;2024-01-06T10:24:18;99648.31;;;-8.51;43.10
68456;BME280;55437;55.046;38.838;2024-01-06T10:26:45;99645.47;;;-8.79;43.58
68456;BME280;55437;55.046;38.838;2024-01-06T10:29:13;99644.53;;;-8.83;43.71
68456;BME280;55437;55.046;38.838;2024-01-06T10:31:41;99659.03;;;-8.92;43.85
68456;BME280;55437;55.046;38.838;2024-01-06T10:34:07;99650.94;;;-8.88;43.94
68456;BME280;55437;55.046;38.838;2024-01-06T10:36:33;99641.13;;;-8.85;43.92
68456;BME280;55437;55.046;38.838;2024-01-06T10:38:59;99645.06;;;-8.69;44.06
68456;BME280;55437;55.046;38.838;2024-01-06T10:41:28;99640.66;;;-8.55;43.64
68456;BME280;55437;55.046;38.838;2024-01-06T10:43:58;99653.16;;;-8.54;43.52
68456;BME280;55437;55.046;38.838;2024-01-06T10:46:28;99649.31;;;-8.66;43.67
68456;BME280;55437;55.046;38.838;2024-01-06T10:48:57;99643.06;;;-8.57;43.80
68456;BME280;55437;55.046;38.838;2024-01-06T10:51:25;99640.41;;;-8.41;43.75
68456;BME280;55437;55.046;38.838;2024-01-06T10:53:52;99645.25;;;-8.23;43.16
68456;BME280;55437;55.046;38.838;2024-01-06T10:56:23;99635.63;;;-8.36;43.55
68456;BME280;55437;55.046;38.838;2024-01-06T10:58:53;99638.22;;;-8.54;44.09
68456;BME280;55437;55.046;38.838;2024-01-06T11:01:29;99637.78;;;-8.45;43.58
68456;BME280;55437;55.046;38.838;2024-01-06T11:03:55;99631.56;;;-8.34;43.38
68456;BME280;55437;55.046;38.838;2024-01-06T11:06:29;99628.63;;;-8.24;43.72
68456;BME280;55437;55.046;38.838;2024-01-06T11:11:31;99627.13;;;-8.62;44.28
68456;BME280;55437;55.046;38.838;2024-01-06T11:14:38;99625.34;;;-8.85;44.53
68456;BME280;55437;55.046;38.838;2024-01-06T11:17:04;99627.13;;;-9.02;44.69
68456;BME280;55437;55.046;38.838;2024-01-06T11:22:30;99632.88;;;-8.84;44.53
68456;BME280;55437;55.046;38.838;2024-01-06T11:25:06;99631.38;;;-8.99;44.51
68456;BME280;55437;55.046;38.838;2024-01-06T11:27:33;99614.44;;;-9.08;45.08
68456;BME280;55437;55.046;38.838;2024-01-06T11:30:01;99623.97;;;-9.17;45.28
68456;BME280;55437;55.046;38.838;2024-01-06T11:32:35;99620.53;;;-9.21;45.26
68456;BME280;55437;55.046;38.838;2024-01-06T11:35:11;99620.00;;;-9.14;45.16
68456;BME280;55437;55.046;38.838;2024-01-06T11:40:15;99623.44;;;-9.29;45.68
68456;BME280;55437;55.046;38.838;2024-01-06T11:42:43;99624.50;;;-9.24;45.91
68456;BME280;55437;55.046;38.838;2024-01-06T11:45:09;99617.84;;;-9.25;45.93
68456;BME280;55437;55.046;38.838;2024-01-06T11:47:35;99632.19;;;-9.20;45.75
68456;BME280;55437;55.046;38.838;2024-01-06T11:50:02;99633.66;;;-9.23;46.33
68456;BME280;55437;55.046;38.838;2024-01-06T11:52:33;99624.38;;;-9.27;46.23
68456;BME280;55437;55.046;38.838;2024-01-06T11:55:00;99627.72;;;-9.27;46.30
68456;BME280;55437;55.046;38.838;2024-01-06T11:57:27;99629.41;;;-9.26;46.19
68456;BME280;55437;55.046;38.838;2024-01-06T11:59:55;99626.84;;;-9.27;46.43
68456;BME280;55437;55.046;38.838;2024-01-06T12:02:46;99629.47;;;-9.24;46.20
68456;BME280;55437;55.046;38.838;2024-01-06T12:05:16;99640.56;;;-9.18;45.88
68456;BME280;55437;55.046;38.838;2024-01-06T12:08:01;99637.22;;;-9.18;46.24
68456;BME280;55437;55.046;38.838;2024-01-06T12:10:31;99618.94;;;-9.38;46.50
68456;BME280;55437;55.046;38.838;2024-01-06T12:13:07;99625.28;;;-9.44;46.68
68456;BME280;55437;55.046;38.838;2024-01-06T12:15:37;99635.22;;;-9.44;46.64
68456;BME280;55437;55.046;38.838;2024-01-06T12:18:14;99625.94;;;-9.29;46.53
68456;BME280;55437;55.046;38.838;2024-01-06T12:20:42;99624.88;;;-9.15;46.34
68456;BME280;55437;55.046;38.838;2024-01-06T12:23:08;99625.44;;;-9.22;46.51
68456;BME280;55437;55.046;38.838;2024-01-06T12:25:34;99631.81;;;-9.27;46.69
68456;BME280;55437;55.046;38.838;2024-01-06T12:28:15;99632.94;;;-9.40;46.97
68456;BME280;55437;55.046;38.838;2024-01-06T12:30:41;99624.63;;;-9.60;47.06
68456;BME280;55437;55.046;38.838;2024-01-06T12:33:07;99624.16;;;-9.70;47.86
68456;BME280;55437;55.046;38.838;2024-01-06T12:35:34;99623.28;;;-9.71;47.90
68456;BME280;55437;55.046;38.838;2024-01-06T12:38:06;99620.94;;;-9.68;47.86
68456;BME280;55437;55.046;38.838;2024-01-06T12:40:33;99628.09;;;-9.56;47.68
68456;BME280;55437;55.046;38.838;2024-01-06T12:43:00;99626.31;;;-9.59;47.75
68456;BME280;55437;55.046;38.838;2024-01-06T12:45:29;99626.47;;;-9.56;47.80
68456;BME280;55437;55.046;38.838;2024-01-06T12:47:55;99629.03;;;-9.54;47.97
68456;BME280;55437;55.046;38.838;2024-01-06T12:50:23;99635.03;;;-9.49;47.94
68456;BME280;55437;55.046;38.838;2024-01-06T12:52:49;99634.00;;;-9.54;48.13
68456;BME280;55437;55.046;38.838;2024-01-06T12:55:15;99636.16;;;-9.42;47.85